Time,TemperatureF,DewpointF,PressureIn,WindDirection,WindDirectionDegrees,WindSpeedMPH,WindSpeedGustMPH,Humidity,HourlyPrecipIn,Conditions,Clouds,dailyrainin,SoftwareType,DateUTC
2013-04-21 00:01:00,34.8,31.6,26.95,SW,234,0.0,5.0,88,0.00,,,-99.99,VWS V12.07,2013-04-21 04:01:00,
2013-04-21 00:31:00,34.8,30.2,26.96,SW,234,0.0,5.0,83,0.00,,,-99.99,VWS V12.07,2013-04-21 04:31:00,
2013-04-21 01:01:00,35.2,29.7,26.96,SW,234,0.0,5.0,80,0.00,,,-99.99,VWS V12.07,2013-04-21 05:01:00,
2013-04-21 01:31:00,33.9,29.0,26.96,SW,234,0.0,5.0,82,0.00,,,-99.99,VWS V12.07,2013-04-21 05:31:00,
2013-04-21 02:01:00,31.8,28.4,26.96,SW,234,0.0,5.0,87,0.00,,,-99.99,VWS V12.07,2013-04-21 06:01:00,
2013-04-21 02:31:00,31.5,28.9,26.96,SW,234,0.0,5.0,90,0.00,,,-99.99,VWS V12.07,2013-04-21 06:31:00,
2013-04-21 03:01:00,31.0,28.7,26.97,SW,234,0.0,5.0,91,0.00,,,-99.99,VWS V12.07,2013-04-21 07:01:00,
2013-04-21 03:31:00,30.5,28.5,26.98,SW,234,0.0,5.0,92,0.00,,,-99.99,VWS V12.07,2013-04-21 07:31:00,
2013-04-21 04:01:00,30.1,28.3,26.98,SW,234,0.0,5.0,93,0.00,,,-99.99,VWS V12.07,2013-04-21 08:01:00,
2013-04-21 04:31:00,30.2,28.7,26.99,SW,234,0.0,5.0,94,0.00,,,-99.99,VWS V12.07,2013-04-21 08:31:00,
2013-04-21 05:01:00,31.1,29.0,27.00,SW,234,0.0,5.0,92,0.00,,,-99.99,VWS V12.07,2013-04-21 09:01:00,
2013-04-21 05:31:00,31.5,28.6,27.02,SW,234,0.0,5.0,89,0.00,,,-99.99,VWS V12.07,2013-04-21 09:31:00,
2013-04-21 06:01:00,30.5,27.6,27.03,SW,234,0.0,5.0,89,0.00,,,-99.99,VWS V12.07,2013-04-21 10:01:00,
2013-04-21 06:31:00,30.8,28.5,27.04,SW,234,0.0,5.0,91,0.00,,,-99.99,VWS V12.07,2013-04-21 10:31:00,
2013-04-21 07:01:00,33.5,30.6,27.06,WSW,246,0.0,5.0,89,0.00,,,-99.99,VWS V12.07,2013-04-21 11:01:00,
2013-04-21 07:31:00,39.3,30.4,27.06,ESE,103,0.0,0.0,70,0.00,,,-99.99,VWS V12.07,2013-04-21 11:31:00,
2013-04-21 08:02:00,40.3,29.9,27.07,ESE,106,0.0,0.0,66,0.00,,,-99.99,VWS V12.07,2013-04-21 12:02:00,
2013-04-21 08:31:00,40.3,29.9,27.08,ESE,103,0.0,0.0,66,0.00,,,-99.99,VWS V12.07,2013-04-21 12:31:00,
2013-04-21 09:01:00,40.8,31.1,27.09,ESE,103,0.0,0.0,68,0.00,,,-99.99,VWS V12.07,2013-04-21 13:01:00,
2013-04-21 09:31:00,41.0,30.1,27.09,NE,47,0.0,0.0,65,0.00,,,-99.99,VWS V12.07,2013-04-21 13:31:00,
2013-04-21 10:01:00,41.6,30.0,27.09,SSW,209,0.0,0.0,63,0.00,,,-99.99,VWS V12.07,2013-04-21 14:01:00,
2013-04-21 10:31:00,42.5,31.2,27.09,ESE,117,0.0,0.0,64,0.00,,,-99.99,VWS V12.07,2013-04-21 14:31:00,
2013-04-21 11:01:00,45.1,32.9,27.09,East,87,0.0,0.0,62,0.00,,,-99.99,VWS V12.07,2013-04-21 15:01:00,
2013-04-21 11:31:00,45.6,32.9,27.08,NW,321,0.0,0.0,61,0.00,,,-99.99,VWS V12.07,2013-04-21 15:31:00,
2013-04-21 12:01:00,46.0,32.5,27.07,SW,226,0.0,0.0,59,0.00,,,-99.99,VWS V12.07,2013-04-21 16:01:00,
2013-04-21 12:31:00,47.4,34.6,27.07,ESE,108,0.0,0.0,61,0.00,,,-99.99,VWS V12.07,2013-04-21 16:31:00,
2013-04-21 13:01:00,49.2,35.9,27.05,SE,134,0.0,0.0,60,0.00,,,-99.99,VWS V12.07,2013-04-21 17:01:00,
2013-04-21 13:31:00,48.8,35.1,27.06,SE,146,0.0,0.0,59,0.00,,,-99.99,VWS V12.07,2013-04-21 17:31:00,
2013-04-21 14:01:00,48.6,35.8,27.05,NE,48,0.0,0.0,61,0.00,,,-99.99,VWS V12.07,2013-04-21 18:01:00,
2013-04-21 14:31:00,49.6,36.7,27.05,SSE,147,0.0,0.0,61,0.00,,,-99.99,VWS V12.07,2013-04-21 18:31:00,
2013-04-21 15:01:00,49.5,36.6,27.04,ESE,113,0.0,0.0,61,0.00,,,-99.99,VWS V12.07,2013-04-21 19:01:00,
2013-04-21 15:31:00,49.8,34.8,27.04,SSE,149,0.0,0.0,56,0.00,,,-99.99,VWS V12.07,2013-04-21 19:31:00,
2013-04-21 16:01:00,49.0,34.9,27.03,East,82,0.0,0.0,58,0.00,,,-99.99,VWS V12.07,2013-04-21 20:01:00,
2013-04-21 16:31:00,48.6,34.9,27.02,SE,130,0.0,0.0,59,0.00,,,-99.99,VWS V12.07,2013-04-21 20:31:00,
2013-04-21 17:01:00,48.2,35.0,27.02,ESE,111,0.0,0.0,60,0.00,,,-99.99,VWS V12.07,2013-04-21 21:01:00,
2013-04-21 17:31:00,48.2,35.0,27.03,ESE,107,0.0,0.0,60,0.00,,,-99.99,VWS V12.07,2013-04-21 21:31:00,
2013-04-21 18:01:00,46.8,34.5,27.04,West,271,0.0,0.0,62,0.00,,,-99.99,VWS V12.07,2013-04-21 22:01:00,
2013-04-21 18:31:00,46.8,35.3,27.04,East,100,0.0,0.0,64,0.00,,,-99.99,VWS V12.07,2013-04-21 22:31:00,
2013-04-21 19:01:00,45.8,35.1,27.04,ENE,63,0.0,0.0,66,0.00,,,-99.99,VWS V12.07,2013-04-21 23:01:00,
2013-04-21 19:31:00,45.3,35.4,27.05,ENE,77,0.0,0.0,68,0.00,,,-99.99,VWS V12.07,2013-04-21 23:31:00,
2013-04-21 20:01:00,44.6,35.1,27.07,ESE,111,0.0,0.0,69,0.00,,,-99.99,VWS V12.07,2013-04-22 00:01:00,
2013-04-21 20:31:00,43.5,35.4,27.08,East,82,0.0,0.0,73,0.00,,,-99.99,VWS V12.07,2013-04-22 00:31:00,
2013-04-21 21:01:00,43.1,35.4,27.08,ENE,70,0.0,0.0,74,0.00,,,-99.99,VWS V12.07,2013-04-22 01:01:00,
2013-04-21 21:31:00,43.0,35.3,27.08,ENE,70,0.0,0.0,74,0.00,,,-99.99,VWS V12.07,2013-04-22 01:31:00,
2013-04-21 22:02:00,42.5,34.8,27.08,ENE,70,0.0,0.0,74,0.00,,,-99.99,VWS V12.07,2013-04-22 02:02:00,
2013-04-21 22:32:00,42.2,34.9,27.08,East,92,0.0,0.0,75,0.00,,,-99.99,VWS V12.07,2013-04-22 02:32:00,
2013-04-21 23:02:00,41.8,35.1,27.08,SSE,155,0.0,0.0,77,0.00,,,-99.99,VWS V12.07,2013-04-22 03:02:00,
2013-04-21 23:32:00,41.2,35.2,27.07,ESE,114,0.0,0.0,79,0.00,,,-99.99,VWS V12.07,2013-04-22 03:32:00,